Pagina principale
METAR-TAF:

METAR-TAF

Aeroporti :

Foggia, Italia

Aeroporto di Amendola

latitudine: 41-32N, longitudine: 015-43E, altezza: 57 m

Osservazione

Il bollettino è stato emesso 7 ore e 17 minuti fa, alle 17:55 UTC
Vento 6 kt da ovest/sud-ovest
Temperature 11°C
Umidità 87%
Pressione 1011 hPa
Visibilità 10 km o più
Poco nuvoloso ad un'altezza di 3000 ft

METAR: LIBA 161755Z 25006KT 9999 FEW030 11/09 Q1011 RMK FEW VIS MIN 9999 WIND THR11 27003KT WIND THR29 /////KT BLU

Ora: 02:12 (01:12 UTC)

Previsione

Il bollettino è stato emesso 8 ore e 12 minuti fa, alle 17:00 UTC
Previsione valida dal 16 alle 18 UTC al 17 alle 03 UTC
Vento 12 kt da ovest/sud-ovest
Visibilità 10 km o più
Poco nuvoloso ad un'altezza di 2500 ft
Nubi sparse ad un'altezza di 6000 ft

TAF: LIBA 161700Z 1618/1703 24012KT 9999 FEW025 SCT060

Osservazioni e previsioni meteorologiche di più di 4000 aeroporti (messaggi METAR e TAF).

Le stazioni disponibili sono rappresentate dai dischi gialli e rossi sulla carta.

Puntare il mouse per vedere il nome della stazione.

Clicca sopra per visualizzare le osservazioni e previsioni meteorologiche.

Per cambiare la mappa : fare clic sui pulsanti verdi con una croce nera per ingrandire, il pulsante verde con un trattino per diminuire, o sulla freccia verde per le mappe adiacenti.


METAR-TAF: